sensor_id;sensor_type;location;lat;lon;timestamp;P1;durP1;ratioP1;P2;durP2;ratioP2
44850;SDS011;30583;48.714;9.386;2023-03-15T00:01:35;2.97;;;1.50;;
44850;SDS011;30583;48.714;9.386;2023-03-15T00:04:01;4.18;;;1.88;;
44850;SDS011;30583;48.714;9.386;2023-03-15T00:06:29;3.22;;;1.92;;
44850;SDS011;30583;48.714;9.386;2023-03-15T00:08:57;2.55;;;1.83;;
44850;SDS011;30583;48.714;9.386;2023-03-15T00:11:26;3.38;;;1.70;;
44850;SDS011;30583;48.714;9.386;2023-03-15T00:13:52;5.13;;;1.73;;
44850;SDS011;30583;48.714;9.386;2023-03-15T00:16:17;3.05;;;1.73;;
44850;SDS011;30583;48.714;9.386;2023-03-15T00:18:46;3.85;;;2.05;;
44850;SDS011;30583;48.714;9.386;2023-03-15T00:21:12;3.90;;;1.80;;
44850;SDS011;30583;48.714;9.386;2023-03-15T00:23:38;3.50;;;2.05;;
44850;SDS011;30583;48.714;9.386;2023-03-15T00:26:03;4.15;;;2.00;;
44850;SDS011;30583;48.714;9.386;2023-03-15T00:28:29;3.80;;;2.17;;
44850;SDS011;30583;48.714;9.386;2023-03-15T00:31:01;3.35;;;2.60;;
44850;SDS011;30583;48.714;9.386;2023-03-15T00:33:46;3.97;;;2.38;;
44850;SDS011;30583;48.714;9.386;2023-03-15T00:36:13;3.67;;;2.80;;
44850;SDS011;30583;48.714;9.386;2023-03-15T00:38:40;5.13;;;2.47;;
44850;SDS011;30583;48.714;9.386;2023-03-15T00:41:11;4.25;;;2.70;;
44850;SDS011;30583;48.714;9.386;2023-03-15T00:43:38;4.50;;;2.50;;
44850;SDS011;30583;48.714;9.386;2023-03-15T00:46:04;7.05;;;2.60;;
44850;SDS011;30583;48.714;9.386;2023-03-15T00:48:30;4.18;;;2.53;;
44850;SDS011;30583;48.714;9.386;2023-03-15T00:53:29;5.18;;;3.30;;
44850;SDS011;30583;48.714;9.386;2023-03-15T00:55:55;5.97;;;3.67;;
44850;SDS011;30583;48.714;9.386;2023-03-15T00:58:21;5.30;;;3.63;;
44850;SDS011;30583;48.714;9.386;2023-03-15T01:00:46;6.32;;;3.60;;
44850;SDS011;30583;48.714;9.386;2023-03-15T01:03:12;5.55;;;3.75;;
44850;SDS011;30583;48.714;9.386;2023-03-15T01:05:38;7.63;;;4.82;;
44850;SDS011;30583;48.714;9.386;2023-03-15T01:08:04;6.65;;;3.97;;
44850;SDS011;30583;48.714;9.386;2023-03-15T01:10:30;5.43;;;3.55;;
44850;SDS011;30583;48.714;9.386;2023-03-15T01:12:58;5.97;;;3.67;;
44850;SDS011;30583;48.714;9.386;2023-03-15T01:15:23;4.60;;;3.22;;
44850;SDS011;30583;48.714;9.386;2023-03-15T01:17:49;7.63;;;3.47;;
44850;SDS011;30583;48.714;9.386;2023-03-15T01:20:15;6.07;;;3.53;;
44850;SDS011;30583;48.714;9.386;2023-03-15T01:22:40;5.75;;;3.90;;
44850;SDS011;30583;48.714;9.386;2023-03-15T01:25:06;7.45;;;4.00;;
44850;SDS011;30583;48.714;9.386;2023-03-15T01:27:33;9.55;;;3.50;;
44850;SDS011;30583;48.714;9.386;2023-03-15T01:29:59;8.93;;;3.67;;
44850;SDS011;30583;48.714;9.386;2023-03-15T01:32:25;6.90;;;3.88;;
44850;SDS011;30583;48.714;9.386;2023-03-15T01:34:51;7.65;;;3.88;;
44850;SDS011;30583;48.714;9.386;2023-03-15T01:37:16;11.13;;;4.00;;
44850;SDS011;30583;48.714;9.386;2023-03-15T01:39:42;5.30;;;3.63;;
44850;SDS011;30583;48.714;9.386;2023-03-15T01:42:08;7.18;;;4.07;;
44850;SDS011;30583;48.714;9.386;2023-03-15T01:44:48;7.10;;;3.80;;
44850;SDS011;30583;48.714;9.386;2023-03-15T01:47:25;9.05;;;4.00;;
44850;SDS011;30583;48.714;9.386;2023-03-15T01:49:53;8.68;;;3.97;;
44850;SDS011;30583;48.714;9.386;2023-03-15T01:52:31;7.45;;;3.95;;
44850;SDS011;30583;48.714;9.386;2023-03-15T01:55:03;8.25;;;4.50;;
44850;SDS011;30583;48.714;9.386;2023-03-15T01:57:40;6.68;;;4.05;;
44850;SDS011;30583;48.714;9.386;2023-03-15T02:00:13;6.07;;;4.20;;
44850;SDS011;30583;48.714;9.386;2023-03-15T02:02:42;9.52;;;4.60;;
44850;SDS011;30583;48.714;9.386;2023-03-15T02:05:12;8.35;;;3.92;;
44850;SDS011;30583;48.714;9.386;2023-03-15T02:07:44;7.72;;;4.40;;
44850;SDS011;30583;48.714;9.386;2023-03-15T02:10:15;9.90;;;3.55;;
44850;SDS011;30583;48.714;9.386;2023-03-15T02:12:48;7.47;;;4.40;;
44850;SDS011;30583;48.714;9.386;2023-03-15T02:15:16;11.95;;;4.30;;
44850;SDS011;30583;48.714;9.386;2023-03-15T02:17:43;8.43;;;3.47;;
44850;SDS011;30583;48.714;9.386;2023-03-15T02:23:06;6.28;;;2.85;;
44850;SDS011;30583;48.714;9.386;2023-03-15T02:28:05;7.50;;;3.60;;
44850;SDS011;30583;48.714;9.386;2023-03-15T02:30:33;6.13;;;3.33;;
44850;SDS011;30583;48.714;9.386;2023-03-15T02:32:59;8.90;;;3.05;;
44850;SDS011;30583;48.714;9.386;2023-03-15T02:35:29;9.60;;;3.72;;
44850;SDS011;30583;48.714;9.386;2023-03-15T02:37:56;7.88;;;3.10;;
44850;SDS011;30583;48.714;9.386;2023-03-15T02:40:24;8.00;;;3.88;;
44850;SDS011;30583;48.714;9.386;2023-03-15T02:42:55;7.30;;;2.55;;
44850;SDS011;30583;48.714;9.386;2023-03-15T02:45:24;5.50;;;2.72;;
44850;SDS011;30583;48.714;9.386;2023-03-15T02:47:52;7.20;;;2.90;;
44850;SDS011;30583;48.714;9.386;2023-03-15T02:50:19;7.30;;;2.60;;
44850;SDS011;30583;48.714;9.386;2023-03-15T02:52:44;8.23;;;2.40;;
44850;SDS011;30583;48.714;9.386;2023-03-15T02:55:10;6.53;;;2.53;;
44850;SDS011;30583;48.714;9.386;2023-03-15T02:57:36;5.55;;;2.67;;
44850;SDS011;30583;48.714;9.386;2023-03-15T03:00:02;6.50;;;2.80;;
44850;SDS011;30583;48.714;9.386;2023-03-15T03:02:42;9.35;;;2.95;;
44850;SDS011;30583;48.714;9.386;2023-03-15T03:05:10;6.53;;;2.90;;
44850;SDS011;30583;48.714;9.386;2023-03-15T03:07:36;7.18;;;2.80;;
44850;SDS011;30583;48.714;9.386;2023-03-15T03:10:03;7.82;;;3.00;;
44850;SDS011;30583;48.714;9.386;2023-03-15T03:12:30;6.93;;;3.10;;
44850;SDS011;30583;48.714;9.386;2023-03-15T03:14:56;4.68;;;2.88;;
44850;SDS011;30583;48.714;9.386;2023-03-15T03:17:22;10.35;;;3.20;;
44850;SDS011;30583;48.714;9.386;2023-03-15T03:19:48;7.78;;;3.40;;
44850;SDS011;30583;48.714;9.386;2023-03-15T03:22:15;6.22;;;2.97;;
44850;SDS011;30583;48.714;9.386;2023-03-15T03:24:41;7.03;;;2.95;;
44850;SDS011;30583;48.714;9.386;2023-03-15T03:27:10;9.73;;;2.75;;
44850;SDS011;30583;48.714;9.386;2023-03-15T03:29:38;7.57;;;2.53;;
44850;SDS011;30583;48.714;9.386;2023-03-15T03:32:05;8.48;;;2.40;;
44850;SDS011;30583;48.714;9.386;2023-03-15T03:34:30;7.78;;;2.22;;
44850;SDS011;30583;48.714;9.386;2023-03-15T03:36:56;8.30;;;3.08;;
44850;SDS011;30583;48.714;9.386;2023-03-15T03:39:22;7.15;;;2.45;;
44850;SDS011;30583;48.714;9.386;2023-03-15T03:41:47;5.88;;;2.25;;
44850;SDS011;30583;48.714;9.386;2023-03-15T03:44:14;3.38;;;2.20;;
44850;SDS011;30583;48.714;9.386;2023-03-15T03:46:40;4.18;;;2.30;;
44850;SDS011;30583;48.714;9.386;2023-03-15T03:49:05;6.53;;;2.40;;
44850;SDS011;30583;48.714;9.386;2023-03-15T03:51:31;6.30;;;2.10;;
44850;SDS011;30583;48.714;9.386;2023-03-15T03:53:58;7.10;;;2.10;;
44850;SDS011;30583;48.714;9.386;2023-03-15T03:56:25;4.60;;;1.90;;
44850;SDS011;30583;48.714;9.386;2023-03-15T03:58:50;4.90;;;2.72;;
44850;SDS011;30583;48.714;9.386;2023-03-15T04:01:16;11.30;;;6.70;;
44850;SDS011;30583;48.714;9.386;2023-03-15T04:03:42;7.50;;;2.53;;
44850;SDS011;30583;48.714;9.386;2023-03-15T04:06:07;5.78;;;2.00;;
44850;SDS011;30583;48.714;9.386;2023-03-15T04:08:33;6.85;;;2.00;;
44850;SDS011;30583;48.714;9.386;2023-03-15T04:10:58;5.20;;;1.90;;
44850;SDS011;30583;48.714;9.386;2023-03-15T04:13:27;7.95;;;1.92;;
44850;SDS011;30583;48.714;9.386;2023-03-15T04:15:53;6.60;;;1.65;;
44850;SDS011;30583;48.714;9.386;2023-03-15T04:18:21;6.97;;;1.75;;
44850;SDS011;30583;48.714;9.386;2023-03-15T04:20:47;11.85;;;3.50;;
44850;SDS011;30583;48.714;9.386;2023-03-15T04:23:13;9.10;;;2.42;;
44850;SDS011;30583;48.714;9.386;2023-03-15T04:25:40;5.07;;;2.40;;
44850;SDS011;30583;48.714;9.386;2023-03-15T04:28:06;6.63;;;2.13;;
44850;SDS011;30583;48.714;9.386;2023-03-15T04:30:35;10.45;;;2.42;;
44850;SDS011;30583;48.714;9.386;2023-03-15T04:33:01;5.82;;;2.17;;
44850;SDS011;30583;48.714;9.386;2023-03-15T04:35:28;7.55;;;2.25;;
44850;SDS011;30583;48.714;9.386;2023-03-15T04:37:56;8.35;;;2.38;;
44850;SDS011;30583;48.714;9.386;2023-03-15T04:40:22;8.80;;;2.47;;
44850;SDS011;30583;48.714;9.386;2023-03-15T04:42:49;5.40;;;2.33;;
44850;SDS011;30583;48.714;9.386;2023-03-15T04:45:15;5.40;;;2.40;;
44850;SDS011;30583;48.714;9.386;2023-03-15T04:47:41;8.10;;;3.40;;
44850;SDS011;30583;48.714;9.386;2023-03-15T04:50:07;9.77;;;3.88;;
44850;SDS011;30583;48.714;9.386;2023-03-15T04:52:34;8.40;;;4.40;;
44850;SDS011;30583;48.714;9.386;2023-03-15T04:54:59;6.85;;;3.83;;
44850;SDS011;30583;48.714;9.386;2023-03-15T04:57:25;7.57;;;4.20;;
44850;SDS011;30583;48.714;9.386;2023-03-15T04:59:50;8.02;;;3.50;;
44850;SDS011;30583;48.714;9.386;2023-03-15T05:02:16;6.03;;;2.85;;
44850;SDS011;30583;48.714;9.386;2023-03-15T05:04:42;10.32;;;3.28;;
44850;SDS011;30583;48.714;9.386;2023-03-15T05:07:08;7.60;;;3.03;;
44850;SDS011;30583;48.714;9.386;2023-03-15T05:09:33;8.48;;;3.15;;
44850;SDS011;30583;48.714;9.386;2023-03-15T05:12:02;9.40;;;3.25;;
44850;SDS011;30583;48.714;9.386;2023-03-15T05:14:29;8.07;;;2.88;;
44850;SDS011;30583;48.714;9.386;2023-03-15T05:16:55;7.70;;;2.30;;
44850;SDS011;30583;48.714;9.386;2023-03-15T05:19:23;6.30;;;2.47;;
44850;SDS011;30583;48.714;9.386;2023-03-15T05:21:52;8.90;;;2.60;;
44850;SDS011;30583;48.714;9.386;2023-03-15T05:24:18;7.38;;;2.55;;
44850;SDS011;30583;48.714;9.386;2023-03-15T05:26:44;8.88;;;3.15;;
44850;SDS011;30583;48.714;9.386;2023-03-15T05:29:11;9.82;;;4.15;;
44850;SDS011;30583;48.714;9.386;2023-03-15T05:31:37;73.55;;;30.80;;
44850;SDS011;30583;48.714;9.386;2023-03-15T05:34:03;49.85;;;20.30;;
44850;SDS011;30583;48.714;9.386;2023-03-15T05:36:29;22.17;;;11.15;;
44850;SDS011;30583;48.714;9.386;2023-03-15T05:38:55;28.25;;;17.20;;
44850;SDS011;30583;48.714;9.386;2023-03-15T05:41:21;28.52;;;14.18;;
44850;SDS011;30583;48.714;9.386;2023-03-15T05:43:48;300.27;;;121.07;;
44850;SDS011;30583;48.714;9.386;2023-03-15T05:46:14;618.80;;;284.48;;
44850;SDS011;30583;48.714;9.386;2023-03-15T05:48:40;622.13;;;339.83;;
44850;SDS011;30583;48.714;9.386;2023-03-15T05:51:05;918.60;;;547.28;;
44850;SDS011;30583;48.714;9.386;2023-03-15T05:53:31;182.00;;;96.43;;
44850;SDS011;30583;48.714;9.386;2023-03-15T05:55:57;299.48;;;151.50;;
44850;SDS011;30583;48.714;9.386;2023-03-15T05:58:22;193.18;;;104.72;;
44850;SDS011;30583;48.714;9.386;2023-03-15T06:00:48;143.65;;;94.82;;
44850;SDS011;30583;48.714;9.386;2023-03-15T06:03:14;139.25;;;107.15;;
44850;SDS011;30583;48.714;9.386;2023-03-15T06:05:40;64.35;;;49.72;;
44850;SDS011;30583;48.714;9.386;2023-03-15T06:08:06;23.65;;;14.40;;
44850;SDS011;30583;48.714;9.386;2023-03-15T06:10:32;17.20;;;9.73;;
44850;SDS011;30583;48.714;9.386;2023-03-15T06:12:58;16.70;;;10.30;;
44850;SDS011;30583;48.714;9.386;2023-03-15T06:15:24;14.43;;;8.65;;
44850;SDS011;30583;48.714;9.386;2023-03-15T06:17:49;15.25;;;7.32;;
44850;SDS011;30583;48.714;9.386;2023-03-15T06:20:15;11.88;;;5.68;;
44850;SDS011;30583;48.714;9.386;2023-03-15T06:22:41;12.85;;;5.00;;
44850;SDS011;30583;48.714;9.386;2023-03-15T06:25:07;10.25;;;5.43;;
44850;SDS011;30583;48.714;9.386;2023-03-15T06:27:33;9.68;;;4.50;;
44850;SDS011;30583;48.714;9.386;2023-03-15T06:29:59;8.45;;;4.43;;
44850;SDS011;30583;48.714;9.386;2023-03-15T06:32:24;9.30;;;5.45;;
44850;SDS011;30583;48.714;9.386;2023-03-15T06:34:50;15.13;;;7.00;;
44850;SDS011;30583;48.714;9.386;2023-03-15T06:37:16;1436.30;;;530.58;;
44850;SDS011;30583;48.714;9.386;2023-03-15T06:39:42;540.25;;;187.55;;
44850;SDS011;30583;48.714;9.386;2023-03-15T06:42:08;938.85;;;348.38;;
44850;SDS011;30583;48.714;9.386;2023-03-15T06:44:37;637.20;;;230.52;;
44850;SDS011;30583;48.714;9.386;2023-03-15T06:47:03;769.55;;;290.85;;
44850;SDS011;30583;48.714;9.386;2023-03-15T06:49:28;346.42;;;113.65;;
44850;SDS011;30583;48.714;9.386;2023-03-15T06:51:54;248.88;;;81.80;;
44850;SDS011;30583;48.714;9.386;2023-03-15T06:54:20;112.80;;;38.03;;
44850;SDS011;30583;48.714;9.386;2023-03-15T06:56:46;123.60;;;38.20;;
44850;SDS011;30583;48.714;9.386;2023-03-15T06:59:12;31.65;;;11.98;;
44850;SDS011;30583;48.714;9.386;2023-03-15T07:01:37;154.23;;;54.05;;
44850;SDS011;30583;48.714;9.386;2023-03-15T07:04:03;167.23;;;61.42;;
44850;SDS011;30583;48.714;9.386;2023-03-15T07:06:29;142.68;;;54.35;;
44850;SDS011;30583;48.714;9.386;2023-03-15T07:08:54;76.97;;;29.42;;
44850;SDS011;30583;48.714;9.386;2023-03-15T07:11:20;96.43;;;39.22;;
44850;SDS011;30583;48.714;9.386;2023-03-15T07:13:46;198.23;;;78.68;;
44850;SDS011;30583;48.714;9.386;2023-03-15T07:16:11;55.80;;;22.55;;
44850;SDS011;30583;48.714;9.386;2023-03-15T07:18:37;87.43;;;33.65;;
44850;SDS011;30583;48.714;9.386;2023-03-15T07:21:03;12.57;;;5.32;;
44850;SDS011;30583;48.714;9.386;2023-03-15T07:23:29;9.77;;;3.17;;
44850;SDS011;30583;48.714;9.386;2023-03-15T07:25:55;9.20;;;3.40;;
44850;SDS011;30583;48.714;9.386;2023-03-15T07:28:22;11.35;;;3.60;;
44850;SDS011;30583;48.714;9.386;2023-03-15T07:30:59;43.38;;;20.30;;
44850;SDS011;30583;48.714;9.386;2023-03-15T07:33:27;30.02;;;16.00;;
44850;SDS011;30583;48.714;9.386;2023-03-15T07:35:54;17.00;;;9.00;;
44850;SDS011;30583;48.714;9.386;2023-03-15T07:38:23;20.50;;;11.82;;
44850;SDS011;30583;48.714;9.386;2023-03-15T07:40:50;13.68;;;5.22;;
44850;SDS011;30583;48.714;9.386;2023-03-15T07:43:16;10.07;;;4.53;;
44850;SDS011;30583;48.714;9.386;2023-03-15T07:45:42;8.85;;;4.45;;
44850;SDS011;30583;48.714;9.386;2023-03-15T07:48:07;16.63;;;9.32;;
44850;SDS011;30583;48.714;9.386;2023-03-15T07:50:33;11.65;;;5.75;;
44850;SDS011;30583;48.714;9.386;2023-03-15T07:52:59;11.07;;;4.10;;
44850;SDS011;30583;48.714;9.386;2023-03-15T07:55:24;13.48;;;3.35;;
44850;SDS011;30583;48.714;9.386;2023-03-15T07:57:50;9.73;;;3.28;;
44850;SDS011;30583;48.714;9.386;2023-03-15T08:00:16;17.75;;;8.23;;
44850;SDS011;30583;48.714;9.386;2023-03-15T08:02:42;12.20;;;4.95;;
44850;SDS011;30583;48.714;9.386;2023-03-15T08:05:08;8.38;;;3.50;;
44850;SDS011;30583;48.714;9.386;2023-03-15T08:07:34;16.23;;;10.07;;
44850;SDS011;30583;48.714;9.386;2023-03-15T08:10:00;9.35;;;3.75;;
44850;SDS011;30583;48.714;9.386;2023-03-15T08:12:27;11.63;;;4.07;;
44850;SDS011;30583;48.714;9.386;2023-03-15T08:14:54;9.98;;;3.70;;
44850;SDS011;30583;48.714;9.386;2023-03-15T08:17:19;10.40;;;4.82;;
44850;SDS011;30583;48.714;9.386;2023-03-15T08:19:45;8.88;;;3.10;;
44850;SDS011;30583;48.714;9.386;2023-03-15T08:22:10;8.95;;;2.80;;
44850;SDS011;30583;48.714;9.386;2023-03-15T08:24:36;17.02;;;9.18;;
44850;SDS011;30583;48.714;9.386;2023-03-15T08:27:02;9.07;;;2.00;;
44850;SDS011;30583;48.714;9.386;2023-03-15T08:29:29;9.15;;;2.10;;
44850;SDS011;30583;48.714;9.386;2023-03-15T08:31:55;6.82;;;1.75;;
44850;SDS011;30583;48.714;9.386;2023-03-15T08:34:21;7.80;;;1.70;;
44850;SDS011;30583;48.714;9.386;2023-03-15T08:36:47;7.18;;;2.08;;
44850;SDS011;30583;48.714;9.386;2023-03-15T08:39:13;15.73;;;7.03;;
44850;SDS011;30583;48.714;9.386;2023-03-15T08:41:39;6.82;;;2.03;;
44850;SDS011;30583;48.714;9.386;2023-03-15T08:44:05;5.47;;;2.15;;
44850;SDS011;30583;48.714;9.386;2023-03-15T08:46:31;3.78;;;1.70;;
44850;SDS011;30583;48.714;9.386;2023-03-15T08:48:57;15.68;;;5.07;;
44850;SDS011;30583;48.714;9.386;2023-03-15T08:51:24;6.72;;;2.30;;
44850;SDS011;30583;48.714;9.386;2023-03-15T08:53:50;8.57;;;2.00;;
44850;SDS011;30583;48.714;9.386;2023-03-15T08:56:16;6.43;;;2.00;;
44850;SDS011;30583;48.714;9.386;2023-03-15T08:58:43;9.50;;;1.90;;
44850;SDS011;30583;48.714;9.386;2023-03-15T09:01:11;20.88;;;10.93;;
44850;SDS011;30583;48.714;9.386;2023-03-15T09:03:38;7.70;;;1.83;;
44850;SDS011;30583;48.714;9.386;2023-03-15T09:06:03;5.80;;;1.92;;
44850;SDS011;30583;48.714;9.386;2023-03-15T09:08:30;8.88;;;2.20;;
44850;SDS011;30583;48.714;9.386;2023-03-15T09:10:57;5.95;;;1.67;;
44850;SDS011;30583;48.714;9.386;2023-03-15T09:13:23;4.13;;;1.48;;
44850;SDS011;30583;48.714;9.386;2023-03-15T09:15:50;5.38;;;1.73;;
44850;SDS011;30583;48.714;9.386;2023-03-15T09:18:20;6.38;;;2.00;;
44850;SDS011;30583;48.714;9.386;2023-03-15T09:20:46;7.93;;;1.80;;
44850;SDS011;30583;48.714;9.386;2023-03-15T09:23:12;4.40;;;1.42;;
44850;SDS011;30583;48.714;9.386;2023-03-15T09:25:38;4.10;;;1.60;;
44850;SDS011;30583;48.714;9.386;2023-03-15T09:28:04;13.52;;;2.40;;
44850;SDS011;30583;48.714;9.386;2023-03-15T09:30:31;8.45;;;2.60;;
44850;SDS011;30583;48.714;9.386;2023-03-15T09:32:58;3.47;;;1.42;;
44850;SDS011;30583;48.714;9.386;2023-03-15T09:35:23;5.82;;;1.55;;
44850;SDS011;30583;48.714;9.386;2023-03-15T09:37:49;4.82;;;1.65;;
44850;SDS011;30583;48.714;9.386;2023-03-15T09:40:27;3.80;;;1.40;;
44850;SDS011;30583;48.714;9.386;2023-03-15T09:53:18;4.95;;;1.35;;
44850;SDS011;30583;48.714;9.386;2023-03-15T09:55:51;2.83;;;1.20;;
44850;SDS011;30583;48.714;9.386;2023-03-15T09:58:23;6.75;;;1.40;;
44850;SDS011;30583;48.714;9.386;2023-03-15T10:00:57;6.55;;;2.05;;
44850;SDS011;30583;48.714;9.386;2023-03-15T10:05:55;7.40;;;2.13;;
44850;SDS011;30583;48.714;9.386;2023-03-15T10:08:37;3.60;;;1.20;;
44850;SDS011;30583;48.714;9.386;2023-03-15T10:11:05;3.47;;;1.35;;
44850;SDS011;30583;48.714;9.386;2023-03-15T10:13:48;5.90;;;1.40;;
44850;SDS011;30583;48.714;9.386;2023-03-15T10:16:40;5.72;;;2.53;;
44850;SDS011;30583;48.714;9.386;2023-03-15T10:19:12;7.13;;;2.00;;
44850;SDS011;30583;48.714;9.386;2023-03-15T10:22:01;4.75;;;1.40;;
44850;SDS011;30583;48.714;9.386;2023-03-15T10:25:18;6.63;;;1.83;;
44850;SDS011;30583;48.714;9.386;2023-03-15T10:27:44;4.55;;;1.40;;
44850;SDS011;30583;48.714;9.386;2023-03-15T10:30:18;2.92;;;1.25;;
44850;SDS011;30583;48.714;9.386;2023-03-15T10:32:48;5.10;;;1.30;;
44850;SDS011;30583;48.714;9.386;2023-03-15T10:35:35;7.10;;;3.60;;
44850;SDS011;30583;48.714;9.386;2023-03-15T10:38:01;7.13;;;1.90;;
44850;SDS011;30583;48.714;9.386;2023-03-15T10:40:41;4.25;;;1.23;;
44850;SDS011;30583;48.714;9.386;2023-03-15T10:43:29;7.03;;;1.30;;
44850;SDS011;30583;48.714;9.386;2023-03-15T10:48:51;4.75;;;1.50;;
44850;SDS011;30583;48.714;9.386;2023-03-15T10:51:30;4.63;;;1.42;;
44850;SDS011;30583;48.714;9.386;2023-03-15T10:53:58;4.50;;;1.35;;
44850;SDS011;30583;48.714;9.386;2023-03-15T10:56:59;4.82;;;1.75;;
44850;SDS011;30583;48.714;9.386;2023-03-15T10:59:29;4.55;;;1.38;;
44850;SDS011;30583;48.714;9.386;2023-03-15T11:02:16;6.70;;;1.80;;
44850;SDS011;30583;48.714;9.386;2023-03-15T11:04:47;5.38;;;1.50;;
44850;SDS011;30583;48.714;9.386;2023-03-15T11:07:27;6.63;;;1.70;;
44850;SDS011;30583;48.714;9.386;2023-03-15T11:09:54;7.45;;;1.80;;
44850;SDS011;30583;48.714;9.386;2023-03-15T11:12:25;3.63;;;1.25;;
44850;SDS011;30583;48.714;9.386;2023-03-15T11:15:13;3.13;;;0.95;;
44850;SDS011;30583;48.714;9.386;2023-03-15T11:17:43;4.47;;;1.42;;
44850;SDS011;30583;48.714;9.386;2023-03-15T11:20:23;2.88;;;1.08;;
44850;SDS011;30583;48.714;9.386;2023-03-15T11:23:16;3.53;;;0.98;;
44850;SDS011;30583;48.714;9.386;2023-03-15T11:25:46;3.15;;;0.93;;
44850;SDS011;30583;48.714;9.386;2023-03-15T11:28:14;3.47;;;1.10;;
44850;SDS011;30583;48.714;9.386;2023-03-15T11:30:43;3.15;;;0.88;;
44850;SDS011;30583;48.714;9.386;2023-03-15T11:33:13;5.28;;;1.30;;
44850;SDS011;30583;48.714;9.386;2023-03-15T11:36:02;3.90;;;1.00;;
44850;SDS011;30583;48.714;9.386;2023-03-15T11:38:32;4.05;;;1.20;;
44850;SDS011;30583;48.714;9.386;2023-03-15T11:41:04;5.22;;;1.27;;
44850;SDS011;30583;48.714;9.386;2023-03-15T11:49:16;4.10;;;1.25;;
44850;SDS011;30583;48.714;9.386;2023-03-15T11:51:47;4.60;;;1.02;;
44850;SDS011;30583;48.714;9.386;2023-03-15T11:54:16;2.15;;;0.80;;
44850;SDS011;30583;48.714;9.386;2023-03-15T11:59:16;5.13;;;1.08;;
44850;SDS011;30583;48.714;9.386;2023-03-15T12:01:50;7.35;;;1.30;;
44850;SDS011;30583;48.714;9.386;2023-03-15T12:06:52;1.33;;;0.80;;
44850;SDS011;30583;48.714;9.386;2023-03-15T12:12:01;3.70;;;1.00;;
44850;SDS011;30583;48.714;9.386;2023-03-15T12:14:32;3.42;;;1.20;;
44850;SDS011;30583;48.714;9.386;2023-03-15T12:19:59;4.28;;;0.95;;
44850;SDS011;30583;48.714;9.386;2023-03-15T12:22:35;3.42;;;0.90;;
44850;SDS011;30583;48.714;9.386;2023-03-15T12:25:15;3.72;;;1.10;;
44850;SDS011;30583;48.714;9.386;2023-03-15T12:27:46;6.13;;;1.40;;
44850;SDS011;30583;48.714;9.386;2023-03-15T12:30:20;6.15;;;1.90;;
44850;SDS011;30583;48.714;9.386;2023-03-15T12:33:15;7.03;;;1.25;;
44850;SDS011;30583;48.714;9.386;2023-03-15T12:35:43;4.47;;;0.90;;
44850;SDS011;30583;48.714;9.386;2023-03-15T12:38:14;5.68;;;1.08;;
44850;SDS011;30583;48.714;9.386;2023-03-15T12:40:52;4.97;;;1.10;;
44850;SDS011;30583;48.714;9.386;2023-03-15T12:43:40;4.53;;;1.67;;
44850;SDS011;30583;48.714;9.386;2023-03-15T12:46:23;3.03;;;0.90;;
44850;SDS011;30583;48.714;9.386;2023-03-15T12:49:11;12.35;;;6.10;;
44850;SDS011;30583;48.714;9.386;2023-03-15T12:51:41;13.32;;;5.53;;
44850;SDS011;30583;48.714;9.386;2023-03-15T12:54:46;3.72;;;1.25;;
44850;SDS011;30583;48.714;9.386;2023-03-15T12:57:20;4.18;;;0.75;;
44850;SDS011;30583;48.714;9.386;2023-03-15T12:59:56;7.10;;;1.02;;
44850;SDS011;30583;48.714;9.386;2023-03-15T13:02:30;2.80;;;0.80;;
44850;SDS011;30583;48.714;9.386;2023-03-15T13:05:11;3.85;;;0.98;;
44850;SDS011;30583;48.714;9.386;2023-03-15T13:13:11;3.03;;;0.70;;
44850;SDS011;30583;48.714;9.386;2023-03-15T13:16:15;4.13;;;1.15;;
44850;SDS011;30583;48.714;9.386;2023-03-15T13:25:45;5.13;;;2.08;;
44850;SDS011;30583;48.714;9.386;2023-03-15T13:30:47;4.38;;;1.80;;
44850;SDS011;30583;48.714;9.386;2023-03-15T13:33:26;6.90;;;2.00;;
44850;SDS011;30583;48.714;9.386;2023-03-15T13:38:27;6.20;;;2.33;;
44850;SDS011;30583;48.714;9.386;2023-03-15T13:43:47;5.90;;;2.08;;
44850;SDS011;30583;48.714;9.386;2023-03-15T13:46:16;7.78;;;2.33;;
44850;SDS011;30583;48.714;9.386;2023-03-15T13:48:43;6.20;;;2.13;;
44850;SDS011;30583;48.714;9.386;2023-03-15T13:51:18;3.67;;;1.90;;
44850;SDS011;30583;48.714;9.386;2023-03-15T13:53:49;6.15;;;2.30;;
44850;SDS011;30583;48.714;9.386;2023-03-15T13:56:19;6.57;;;2.17;;
44850;SDS011;30583;48.714;9.386;2023-03-15T13:58:51;10.23;;;6.25;;
44850;SDS011;30583;48.714;9.386;2023-03-15T14:01:17;14.85;;;6.30;;
44850;SDS011;30583;48.714;9.386;2023-03-15T14:03:45;7.13;;;3.45;;
44850;SDS011;30583;48.714;9.386;2023-03-15T14:06:19;5.78;;;2.38;;
44850;SDS011;30583;48.714;9.386;2023-03-15T14:08:47;6.88;;;1.70;;
44850;SDS011;30583;48.714;9.386;2023-03-15T14:13:58;7.22;;;3.75;;
44850;SDS011;30583;48.714;9.386;2023-03-15T14:16:38;6.22;;;1.80;;
44850;SDS011;30583;48.714;9.386;2023-03-15T14:19:27;4.32;;;1.63;;
44850;SDS011;30583;48.714;9.386;2023-03-15T14:21:56;7.45;;;2.67;;
44850;SDS011;30583;48.714;9.386;2023-03-15T14:24:37;5.63;;;2.20;;
44850;SDS011;30583;48.714;9.386;2023-03-15T14:27:12;4.15;;;1.63;;
44850;SDS011;30583;48.714;9.386;2023-03-15T14:29:48;6.53;;;1.73;;
44850;SDS011;30583;48.714;9.386;2023-03-15T14:32:23;4.97;;;1.60;;
44850;SDS011;30583;48.714;9.386;2023-03-15T14:34:59;5.97;;;1.80;;
44850;SDS011;30583;48.714;9.386;2023-03-15T14:37:45;3.25;;;1.48;;
44850;SDS011;30583;48.714;9.386;2023-03-15T14:40:21;8.15;;;2.97;;
44850;SDS011;30583;48.714;9.386;2023-03-15T14:42:54;8.35;;;3.13;;
44850;SDS011;30583;48.714;9.386;2023-03-15T14:45:20;3.90;;;1.63;;
44850;SDS011;30583;48.714;9.386;2023-03-15T14:48:09;3.97;;;1.45;;
44850;SDS011;30583;48.714;9.386;2023-03-15T14:50:37;4.45;;;1.90;;
44850;SDS011;30583;48.714;9.386;2023-03-15T14:53:04;5.03;;;1.70;;
44850;SDS011;30583;48.714;9.386;2023-03-15T14:55:32;4.97;;;2.03;;
44850;SDS011;30583;48.714;9.386;2023-03-15T14:58:03;4.88;;;2.00;;
44850;SDS011;30583;48.714;9.386;2023-03-15T15:00:34;4.85;;;1.42;;
44850;SDS011;30583;48.714;9.386;2023-03-15T15:03:00;6.47;;;1.90;;
44850;SDS011;30583;48.714;9.386;2023-03-15T15:05:27;6.40;;;2.28;;
44850;SDS011;30583;48.714;9.386;2023-03-15T15:08:11;5.90;;;2.20;;
44850;SDS011;30583;48.714;9.386;2023-03-15T15:10:38;4.45;;;1.48;;
44850;SDS011;30583;48.714;9.386;2023-03-15T15:13:05;5.18;;;1.83;;
44850;SDS011;30583;48.714;9.386;2023-03-15T15:15:31;6.20;;;1.80;;
44850;SDS011;30583;48.714;9.386;2023-03-15T15:17:57;4.63;;;1.80;;
44850;SDS011;30583;48.714;9.386;2023-03-15T15:20:23;4.22;;;1.50;;
44850;SDS011;30583;48.714;9.386;2023-03-15T15:22:49;4.05;;;1.15;;
44850;SDS011;30583;48.714;9.386;2023-03-15T15:25:19;3.40;;;1.65;;
44850;SDS011;30583;48.714;9.386;2023-03-15T15:27:47;4.40;;;1.52;;
44850;SDS011;30583;48.714;9.386;2023-03-15T15:30:17;4.03;;;1.67;;
44850;SDS011;30583;48.714;9.386;2023-03-15T15:32:44;4.15;;;1.42;;
44850;SDS011;30583;48.714;9.386;2023-03-15T15:35:14;3.22;;;1.45;;
44850;SDS011;30583;48.714;9.386;2023-03-15T15:37:41;4.97;;;2.00;;
44850;SDS011;30583;48.714;9.386;2023-03-15T15:42:43;5.75;;;1.63;;
44850;SDS011;30583;48.714;9.386;2023-03-15T15:45:15;4.18;;;1.40;;
44850;SDS011;30583;48.714;9.386;2023-03-15T15:47:42;7.63;;;3.28;;
44850;SDS011;30583;48.714;9.386;2023-03-15T15:50:12;5.47;;;2.20;;
44850;SDS011;30583;48.714;9.386;2023-03-15T15:52:40;4.00;;;1.67;;
44850;SDS011;30583;48.714;9.386;2023-03-15T15:57:37;3.50;;;1.65;;
44850;SDS011;30583;48.714;9.386;2023-03-15T16:00:04;3.17;;;1.48;;
44850;SDS011;30583;48.714;9.386;2023-03-15T16:02:32;5.18;;;1.70;;
44850;SDS011;30583;48.714;9.386;2023-03-15T16:04:57;2.92;;;1.77;;